sensor_id;sensor_type;location;lat;lon;timestamp;pressure;altitude;pressure_sealevel;temperature;humidity
82931;BME280;72705;53.346;10.248;2024-01-15T00:00:43;99310.72;;;0.42;100.00
82931;BME280;72705;53.346;10.248;2024-01-15T00:03:08;99327.94;;;0.57;100.00
82931;BME280;72705;53.346;10.248;2024-01-15T00:05:35;99362.66;;;0.85;100.00
82931;BME280;72705;53.346;10.248;2024-01-15T00:08:00;99351.44;;;0.71;100.00
82931;BME280;72705;53.346;10.248;2024-01-15T00:10:25;99319.00;;;0.58;100.00
82931;BME280;72705;53.346;10.248;2024-01-15T00:12:52;99296.63;;;0.51;100.00
82931;BME280;72705;53.346;10.248;2024-01-15T00:15:17;99248.78;;;0.13;100.00
82931;BME280;72705;53.346;10.248;2024-01-15T00:17:43;99260.00;;;0.26;100.00
82931;BME280;72705;53.346;10.248;2024-01-15T00:20:09;99333.03;;;0.79;100.00
82931;BME280;72705;53.346;10.248;2024-01-15T00:22:35;99335.56;;;0.91;100.00
82931;BME280;72705;53.346;10.248;2024-01-15T00:25:01;99198.84;;;0.08;100.00
82931;BME280;72705;53.346;10.248;2024-01-15T00:27:26;99294.75;;;0.72;100.00
82931;BME280;72705;53.346;10.248;2024-01-15T00:29:53;99253.25;;;0.62;100.00
82931;BME280;72705;53.346;10.248;2024-01-15T00:32:19;99262.16;;;0.51;100.00
82931;BME280;72705;53.346;10.248;2024-01-15T00:34:45;99321.53;;;0.69;100.00
82931;BME280;72705;53.346;10.248;2024-01-15T00:37:11;99326.25;;;0.56;100.00
82931;BME280;72705;53.346;10.248;2024-01-15T00:39:36;99324.31;;;0.58;100.00
82931;BME280;72705;53.346;10.248;2024-01-15T00:42:04;99290.72;;;0.38;100.00
82931;BME280;72705;53.346;10.248;2024-01-15T00:44:29;99240.41;;;0.08;100.00
82931;BME280;72705;53.346;10.248;2024-01-15T00:46:57;99311.34;;;0.55;100.00
82931;BME280;72705;53.346;10.248;2024-01-15T00:49:22;99307.44;;;0.59;100.00
82931;BME280;72705;53.346;10.248;2024-01-15T00:51:47;99299.16;;;0.53;100.00
82931;BME280;72705;53.346;10.248;2024-01-15T00:54:14;99312.44;;;0.62;100.00
82931;BME280;72705;53.346;10.248;2024-01-15T00:56:39;99289.72;;;0.69;100.00
82931;BME280;72705;53.346;10.248;2024-01-15T00:59:08;99296.56;;;0.81;100.00
82931;BME280;72705;53.346;10.248;2024-01-15T01:01:36;99298.53;;;0.79;100.00
82931;BME280;72705;53.346;10.248;2024-01-15T01:04:03;99241.13;;;0.59;100.00
82931;BME280;72705;53.346;10.248;2024-01-15T01:06:28;99263.75;;;0.73;100.00
82931;BME280;72705;53.346;10.248;2024-01-15T01:08:54;99222.38;;;0.42;100.00
82931;BME280;72705;53.346;10.248;2024-01-15T01:11:19;99260.94;;;0.65;100.00
82931;BME280;72705;53.346;10.248;2024-01-15T01:13:44;99234.13;;;0.49;100.00
82931;BME280;72705;53.346;10.248;2024-01-15T01:16:17;99240.28;;;0.49;100.00
82931;BME280;72705;53.346;10.248;2024-01-15T01:18:42;99270.22;;;0.80;100.00
82931;BME280;72705;53.346;10.248;2024-01-15T01:21:07;99250.91;;;0.88;100.00
82931;BME280;72705;53.346;10.248;2024-01-15T01:23:34;99258.91;;;0.97;100.00
82931;BME280;72705;53.346;10.248;2024-01-15T01:25:59;99262.25;;;1.09;100.00
82931;BME280;72705;53.346;10.248;2024-01-15T01:28:25;99115.47;;;0.22;100.00
82931;BME280;72705;53.346;10.248;2024-01-15T01:30:51;99220.34;;;0.93;100.00
82931;BME280;72705;53.346;10.248;2024-01-15T01:33:16;99105.41;;;0.25;100.00
82931;BME280;72705;53.346;10.248;2024-01-15T01:35:41;99192.53;;;0.88;100.00
82931;BME280;72705;53.346;10.248;2024-01-15T01:38:07;99246.19;;;1.20;100.00
82931;BME280;72705;53.346;10.248;2024-01-15T01:40:32;99237.81;;;1.15;100.00
82931;BME280;72705;53.346;10.248;2024-01-15T01:42:57;99145.66;;;0.59;100.00
82931;BME280;72705;53.346;10.248;2024-01-15T01:45:23;99228.88;;;0.97;100.00
82931;BME280;72705;53.346;10.248;2024-01-15T01:47:52;99234.16;;;1.06;100.00
82931;BME280;72705;53.346;10.248;2024-01-15T01:50:17;99202.91;;;0.91;100.00
82931;BME280;72705;53.346;10.248;2024-01-15T01:52:43;99243.94;;;1.06;100.00
82931;BME280;72705;53.346;10.248;2024-01-15T01:55:09;99215.31;;;1.00;100.00
82931;BME280;72705;53.346;10.248;2024-01-15T01:57:35;99256.78;;;1.01;100.00
82931;BME280;72705;53.346;10.248;2024-01-15T02:00:02;99242.00;;;0.89;100.00
82931;BME280;72705;53.346;10.248;2024-01-15T02:02:29;99137.09;;;0.27;100.00
82931;BME280;72705;53.346;10.248;2024-01-15T02:04:55;99186.09;;;0.52;100.00
82931;BME280;72705;53.346;10.248;2024-01-15T02:07:21;99198.13;;;0.65;100.00
82931;BME280;72705;53.346;10.248;2024-01-15T02:09:46;99198.41;;;0.72;100.00
82931;BME280;72705;53.346;10.248;2024-01-15T02:12:12;99208.75;;;0.85;100.00
82931;BME280;72705;53.346;10.248;2024-01-15T02:14:37;99215.75;;;0.86;100.00
82931;BME280;72705;53.346;10.248;2024-01-15T02:17:07;99212.53;;;0.72;100.00
82931;BME280;72705;53.346;10.248;2024-01-15T02:19:32;99209.44;;;0.67;100.00
82931;BME280;72705;53.346;10.248;2024-01-15T02:21:58;99147.16;;;0.33;100.00
82931;BME280;72705;53.346;10.248;2024-01-15T02:24:23;99205.13;;;0.66;100.00
82931;BME280;72705;53.346;10.248;2024-01-15T02:26:49;99080.44;;;-0.01;100.00
82931;BME280;72705;53.346;10.248;2024-01-15T02:29:15;99205.41;;;0.73;100.00
82931;BME280;72705;53.346;10.248;2024-01-15T02:31:40;99185.97;;;0.53;100.00
82931;BME280;72705;53.346;10.248;2024-01-15T02:34:06;99196.75;;;0.61;100.00
82931;BME280;72705;53.346;10.248;2024-01-15T02:36:33;99189.22;;;0.66;100.00
82931;BME280;72705;53.346;10.248;2024-01-15T02:38:59;99193.25;;;0.61;100.00
82931;BME280;72705;53.346;10.248;2024-01-15T02:41:24;99188.38;;;0.66;100.00
82931;BME280;72705;53.346;10.248;2024-01-15T02:43:50;99184.75;;;0.67;100.00
82931;BME280;72705;53.346;10.248;2024-01-15T02:46:15;99188.91;;;0.69;100.00
82931;BME280;72705;53.346;10.248;2024-01-15T02:48:41;99173.25;;;0.57;100.00
82931;BME280;72705;53.346;10.248;2024-01-15T02:51:06;99176.63;;;0.68;100.00
82931;BME280;72705;53.346;10.248;2024-01-15T02:53:32;99185.44;;;0.78;100.00
82931;BME280;72705;53.346;10.248;2024-01-15T02:55:57;99117.84;;;0.44;100.00
82931;BME280;72705;53.346;10.248;2024-01-15T02:58:23;99115.19;;;0.44;100.00
82931;BME280;72705;53.346;10.248;2024-01-15T03:00:51;99138.50;;;0.50;100.00
82931;BME280;72705;53.346;10.248;2024-01-15T03:03:17;99187.41;;;0.86;100.00
82931;BME280;72705;53.346;10.248;2024-01-15T03:05:42;99204.69;;;1.00;100.00
82931;BME280;72705;53.346;10.248;2024-01-15T03:08:11;99222.72;;;1.06;100.00
82931;BME280;72705;53.346;10.248;2024-01-15T03:10:40;99179.28;;;0.68;100.00
82931;BME280;72705;53.346;10.248;2024-01-15T03:13:05;99128.34;;;0.36;100.00
82931;BME280;72705;53.346;10.248;2024-01-15T03:15:31;99205.00;;;0.68;100.00
82931;BME280;72705;53.346;10.248;2024-01-15T03:17:56;99196.03;;;0.59;100.00
82931;BME280;72705;53.346;10.248;2024-01-15T03:20:21;99207.63;;;0.58;100.00
82931;BME280;72705;53.346;10.248;2024-01-15T03:22:47;99187.63;;;0.35;100.00
82931;BME280;72705;53.346;10.248;2024-01-15T03:25:12;99219.31;;;0.56;100.00
82931;BME280;72705;53.346;10.248;2024-01-15T03:27:37;99212.75;;;0.50;100.00
82931;BME280;72705;53.346;10.248;2024-01-15T03:30:03;99191.97;;;0.36;100.00
82931;BME280;72705;53.346;10.248;2024-01-15T03:32:29;99201.44;;;0.38;100.00
82931;BME280;72705;53.346;10.248;2024-01-15T03:34:54;99188.34;;;0.37;100.00
82931;BME280;72705;53.346;10.248;2024-01-15T03:37:20;99215.00;;;0.64;100.00
82931;BME280;72705;53.346;10.248;2024-01-15T03:39:45;99217.97;;;0.61;100.00
82931;BME280;72705;53.346;10.248;2024-01-15T03:42:12;99192.09;;;0.44;100.00
82931;BME280;72705;53.346;10.248;2024-01-15T03:44:37;99175.19;;;0.26;100.00
82931;BME280;72705;53.346;10.248;2024-01-15T03:47:03;99235.09;;;0.57;100.00
82931;BME280;72705;53.346;10.248;2024-01-15T03:49:28;99235.69;;;0.61;100.00
82931;BME280;72705;53.346;10.248;2024-01-15T03:51:53;99210.66;;;0.44;100.00
82931;BME280;72705;53.346;10.248;2024-01-15T03:54:19;99101.72;;;-0.22;100.00
82931;BME280;72705;53.346;10.248;2024-01-15T03:56:44;99119.88;;;-0.08;100.00
82931;BME280;72705;53.346;10.248;2024-01-15T03:59:09;99217.97;;;0.61;100.00
82931;BME280;72705;53.346;10.248;2024-01-15T04:01:35;99240.03;;;0.71;100.00
82931;BME280;72705;53.346;10.248;2024-01-15T04:04:00;99221.59;;;0.60;100.00
82931;BME280;72705;53.346;10.248;2024-01-15T04:06:26;99149.22;;;0.20;100.00
82931;BME280;72705;53.346;10.248;2024-01-15T04:08:51;99219.06;;;0.68;100.00
82931;BME280;72705;53.346;10.248;2024-01-15T04:11:16;99206.50;;;0.70;100.00
82931;BME280;72705;53.346;10.248;2024-01-15T04:13:42;99248.97;;;0.90;100.00
82931;BME280;72705;53.346;10.248;2024-01-15T04:16:07;99169.91;;;0.45;100.00
82931;BME280;72705;53.346;10.248;2024-01-15T04:18:33;99172.97;;;0.50;100.00
82931;BME280;72705;53.346;10.248;2024-01-15T04:20:58;99221.59;;;0.70;100.00
82931;BME280;72705;53.346;10.248;2024-01-15T04:23:24;99203.97;;;0.50;100.00
82931;BME280;72705;53.346;10.248;2024-01-15T04:25:49;99073.84;;;-0.26;100.00
82931;BME280;72705;53.346;10.248;2024-01-15T04:28:14;99130.38;;;0.13;100.00
82931;BME280;72705;53.346;10.248;2024-01-15T04:30:40;99198.69;;;0.59;100.00
82931;BME280;72705;53.346;10.248;2024-01-15T04:33:08;99192.97;;;0.64;100.00
82931;BME280;72705;53.346;10.248;2024-01-15T04:35:34;99168.94;;;0.56;100.00
82931;BME280;72705;53.346;10.248;2024-01-15T04:37:59;99159.31;;;0.45;100.00
82931;BME280;72705;53.346;10.248;2024-01-15T04:40:25;99239.06;;;0.92;100.00
82931;BME280;72705;53.346;10.248;2024-01-15T04:42:53;99138.63;;;0.20;100.00
82931;BME280;72705;53.346;10.248;2024-01-15T04:45:19;99175.25;;;0.55;100.00
82931;BME280;72705;53.346;10.248;2024-01-15T04:47:48;99100.25;;;0.14;100.00
82931;BME280;72705;53.346;10.248;2024-01-15T04:50:14;99073.03;;;-0.07;100.00
82931;BME280;72705;53.346;10.248;2024-01-15T04:52:39;99156.22;;;0.40;100.00
82931;BME280;72705;53.346;10.248;2024-01-15T04:55:05;99205.66;;;0.60;100.00
82931;BME280;72705;53.346;10.248;2024-01-15T04:57:31;99223.00;;;0.74;100.00
82931;BME280;72705;53.346;10.248;2024-01-15T04:59:59;99162.94;;;0.44;100.00
82931;BME280;72705;53.346;10.248;2024-01-15T05:02:24;99163.75;;;0.45;100.00
82931;BME280;72705;53.346;10.248;2024-01-15T05:04:50;99174.41;;;0.54;100.00
82931;BME280;72705;53.346;10.248;2024-01-15T05:07:16;99202.59;;;0.74;100.00
82931;BME280;72705;53.346;10.248;2024-01-15T05:09:41;99237.38;;;0.91;100.00
82931;BME280;72705;53.346;10.248;2024-01-15T05:12:07;99249.53;;;0.84;100.00
82931;BME280;72705;53.346;10.248;2024-01-15T05:14:32;99221.88;;;0.67;100.00
82931;BME280;72705;53.346;10.248;2024-01-15T05:16:58;99172.13;;;0.40;100.00
82931;BME280;72705;53.346;10.248;2024-01-15T05:19:23;99182.91;;;0.48;100.00
82931;BME280;72705;53.346;10.248;2024-01-15T05:21:49;99188.22;;;0.58;100.00
82931;BME280;72705;53.346;10.248;2024-01-15T05:24:14;99185.56;;;0.48;100.00
82931;BME280;72705;53.346;10.248;2024-01-15T05:26:40;99213.75;;;0.68;100.00
82931;BME280;72705;53.346;10.248;2024-01-15T05:29:05;99182.50;;;0.53;100.00
82931;BME280;72705;53.346;10.248;2024-01-15T05:31:31;99213.75;;;0.59;100.00
82931;BME280;72705;53.346;10.248;2024-01-15T05:33:56;99194.19;;;0.50;100.00
82931;BME280;72705;53.346;10.248;2024-01-15T05:36:23;99243.09;;;0.76;100.00
82931;BME280;72705;53.346;10.248;2024-01-15T05:38:48;99242.84;;;0.79;100.00
82931;BME280;72705;53.346;10.248;2024-01-15T05:41:16;99252.44;;;0.80;100.00
82931;BME280;72705;53.346;10.248;2024-01-15T05:43:42;99233.59;;;0.84;100.00
82931;BME280;72705;53.346;10.248;2024-01-15T05:46:08;99234.44;;;0.94;100.00
82931;BME280;72705;53.346;10.248;2024-01-15T05:48:33;99255.66;;;0.94;100.00
82931;BME280;72705;53.346;10.248;2024-01-15T05:50:59;99167.38;;;0.44;100.00
82931;BME280;72705;53.346;10.248;2024-01-15T05:53:27;99253.44;;;1.08;100.00
82931;BME280;72705;53.346;10.248;2024-01-15T05:55:56;99247.59;;;1.05;100.00
82931;BME280;72705;53.346;10.248;2024-01-15T05:58:22;99194.22;;;0.69;100.00
82931;BME280;72705;53.346;10.248;2024-01-15T06:00:47;99213.19;;;0.74;100.00
82931;BME280;72705;53.346;10.248;2024-01-15T06:03:16;99164.91;;;0.52;100.00
82931;BME280;72705;53.346;10.248;2024-01-15T06:05:41;99197.28;;;0.74;100.00
82931;BME280;72705;53.346;10.248;2024-01-15T06:08:16;99165.19;;;0.58;100.00
82931;BME280;72705;53.346;10.248;2024-01-15T06:10:41;99207.50;;;0.79;100.00
82931;BME280;72705;53.346;10.248;2024-01-15T06:13:08;99236.41;;;0.92;100.00
82931;BME280;72705;53.346;10.248;2024-01-15T06:15:33;99209.56;;;0.75;100.00
82931;BME280;72705;53.346;10.248;2024-01-15T06:17:59;99157.06;;;0.50;100.00
82931;BME280;72705;53.346;10.248;2024-01-15T06:20:24;99216.56;;;0.76;100.00
82931;BME280;72705;53.346;10.248;2024-01-15T06:22:52;99156.22;;;0.40;100.00
82931;BME280;72705;53.346;10.248;2024-01-15T06:25:19;99110.44;;;0.19;100.00
82931;BME280;72705;53.346;10.248;2024-01-15T06:27:47;99175.34;;;0.44;100.00
82931;BME280;72705;53.346;10.248;2024-01-15T06:30:16;99265.72;;;1.00;100.00
82931;BME280;72705;53.346;10.248;2024-01-15T06:32:42;99250.94;;;0.97;100.00
82931;BME280;72705;53.346;10.248;2024-01-15T06:35:08;99049.28;;;-0.28;100.00
82931;BME280;72705;53.346;10.248;2024-01-15T06:37:35;99133.06;;;0.23;100.00
82931;BME280;72705;53.346;10.248;2024-01-15T06:40:01;99149.09;;;0.31;100.00
82931;BME280;72705;53.346;10.248;2024-01-15T06:42:31;99216.56;;;0.76;100.00
82931;BME280;72705;53.346;10.248;2024-01-15T06:44:58;99214.22;;;0.73;100.00
82931;BME280;72705;53.346;10.248;2024-01-15T06:47:26;99141.44;;;0.28;100.00
82931;BME280;72705;53.346;10.248;2024-01-15T06:49:59;99263.78;;;1.02;100.00
82931;BME280;72705;53.346;10.248;2024-01-15T06:52:24;99131.38;;;0.22;100.00
82931;BME280;72705;53.346;10.248;2024-01-15T06:54:50;99138.06;;;0.26;100.00
82931;BME280;72705;53.346;10.248;2024-01-15T06:57:16;99157.59;;;0.25;100.00
82931;BME280;72705;53.346;10.248;2024-01-15T06:59:42;99092.84;;;-0.02;100.00
82931;BME280;72705;53.346;10.248;2024-01-15T07:02:08;99137.22;;;0.16;100.00
82931;BME280;72705;53.346;10.248;2024-01-15T07:04:33;99263.50;;;0.95;100.00
82931;BME280;72705;53.346;10.248;2024-01-15T07:06:59;99232.06;;;0.81;100.00
82931;BME280;72705;53.346;10.248;2024-01-15T07:09:24;99196.75;;;0.61;100.00
82931;BME280;72705;53.346;10.248;2024-01-15T07:11:50;99153.59;;;0.30;100.00
82931;BME280;72705;53.346;10.248;2024-01-15T07:14:16;99118.06;;;-0.07;100.00
82931;BME280;72705;53.346;10.248;2024-01-15T07:16:42;99163.59;;;0.27;100.00
82931;BME280;72705;53.346;10.248;2024-01-15T07:19:07;99199.75;;;0.28;100.00
82931;BME280;72705;53.346;10.248;2024-01-15T07:21:33;99167.94;;;0.18;100.00
82931;BME280;72705;53.346;10.248;2024-01-15T07:23:58;99171.69;;;0.16;100.00
82931;BME280;72705;53.346;10.248;2024-01-15T07:26:24;99221.97;;;0.46;100.00
82931;BME280;72705;53.346;10.248;2024-01-15T07:28:50;99293.66;;;0.85;100.00
82931;BME280;72705;53.346;10.248;2024-01-15T07:31:17;99177.53;;;0.10;100.00
82931;BME280;72705;53.346;10.248;2024-01-15T07:33:44;99201.97;;;0.23;100.00
82931;BME280;72705;53.346;10.248;2024-01-15T07:36:10;99186.19;;;0.21;100.00
82931;BME280;72705;53.346;10.248;2024-01-15T07:38:36;99117.06;;;-0.16;100.00
82931;BME280;72705;53.346;10.248;2024-01-15T07:41:07;99186.91;;;0.23;100.00
82931;BME280;72705;53.346;10.248;2024-01-15T07:43:35;99137.16;;;-0.13;100.00
82931;BME280;72705;53.346;10.248;2024-01-15T07:46:00;99101.13;;;-0.35;100.00
82931;BME280;72705;53.346;10.248;2024-01-15T07:48:27;99307.34;;;0.90;100.00
82931;BME280;72705;53.346;10.248;2024-01-15T07:50:57;99249.63;;;0.53;100.00
82931;BME280;72705;53.346;10.248;2024-01-15T07:53:25;99095.09;;;-0.37;100.00
82931;BME280;72705;53.346;10.248;2024-01-15T07:55:51;99262.50;;;0.67;100.00
82931;BME280;72705;53.346;10.248;2024-01-15T07:58:21;99239.28;;;0.50;100.00
82931;BME280;72705;53.346;10.248;2024-01-15T08:00:49;99218.47;;;0.46;100.00
82931;BME280;72705;53.346;10.248;2024-01-15T08:03:15;99142.53;;;0.16;100.00
82931;BME280;72705;53.346;10.248;2024-01-15T08:05:43;99241.84;;;0.71;100.00
82931;BME280;72705;53.346;10.248;2024-01-15T08:08:08;99197.56;;;0.43;100.00
82931;BME280;72705;53.346;10.248;2024-01-15T08:10:37;99151.00;;;0.00;100.00
82931;BME280;72705;53.346;10.248;2024-01-15T08:13:06;99192.75;;;0.17;100.00
82931;BME280;72705;53.346;10.248;2024-01-15T08:15:34;99246.25;;;0.51;100.00
82931;BME280;72705;53.346;10.248;2024-01-15T08:18:02;99284.03;;;0.74;100.00
82931;BME280;72705;53.346;10.248;2024-01-15T08:20:28;99269.31;;;0.60;100.00
82931;BME280;72705;53.346;10.248;2024-01-15T08:22:54;99171.59;;;-0.13;100.00
82931;BME280;72705;53.346;10.248;2024-01-15T08:25:19;99186.72;;;0.06;100.00
82931;BME280;72705;53.346;10.248;2024-01-15T08:27:45;99265.09;;;0.48;100.00
82931;BME280;72705;53.346;10.248;2024-01-15T08:30:10;99266.81;;;0.59;100.00
82931;BME280;72705;53.346;10.248;2024-01-15T08:32:36;99308.75;;;0.84;100.00
82931;BME280;72705;53.346;10.248;2024-01-15T08:35:06;99269.16;;;0.52;100.00
82931;BME280;72705;53.346;10.248;2024-01-15T08:37:31;99262.59;;;0.56;100.00
82931;BME280;72705;53.346;10.248;2024-01-15T08:40:02;99278.50;;;0.56;100.00
82931;BME280;72705;53.346;10.248;2024-01-15T08:42:33;99274.63;;;0.60;100.00
82931;BME280;72705;53.346;10.248;2024-01-15T08:44:59;99299.47;;;0.69;100.00
82931;BME280;72705;53.346;10.248;2024-01-15T08:47:25;99289.81;;;0.58;100.00
82931;BME280;72705;53.346;10.248;2024-01-15T08:49:54;99260.88;;;0.36;100.00
82931;BME280;72705;53.346;10.248;2024-01-15T08:52:22;99301.69;;;0.64;100.00
82931;BME280;72705;53.346;10.248;2024-01-15T08:54:47;99348.66;;;0.82;100.00
82931;BME280;72705;53.346;10.248;2024-01-15T08:57:13;99217.94;;;0.02;100.00
82931;BME280;72705;53.346;10.248;2024-01-15T08:59:39;99352.56;;;0.78;100.00
82931;BME280;72705;53.346;10.248;2024-01-15T09:02:12;99306.94;;;0.45;100.00
82931;BME280;72705;53.346;10.248;2024-01-15T09:04:37;99347.75;;;0.63;100.00
82931;BME280;72705;53.346;10.248;2024-01-15T09:07:03;99256.72;;;0.13;100.00
82931;BME280;72705;53.346;10.248;2024-01-15T09:09:33;99329.00;;;0.45;100.00
82931;BME280;72705;53.346;10.248;2024-01-15T09:12:02;99291.50;;;0.19;100.00
82931;BME280;72705;53.346;10.248;2024-01-15T09:14:28;99182.50;;;-0.37;100.00
82931;BME280;72705;53.346;10.248;2024-01-15T09:16:54;99344.44;;;0.70;100.00
82931;BME280;72705;53.346;10.248;2024-01-15T09:19:20;99326.97;;;0.58;100.00
82931;BME280;72705;53.346;10.248;2024-01-15T09:21:45;99260.50;;;0.10;100.00
82931;BME280;72705;53.346;10.248;2024-01-15T09:24:12;99249.63;;;0.13;100.00
82931;BME280;72705;53.346;10.248;2024-01-15T09:26:40;99289.63;;;0.40;100.00
82931;BME280;72705;53.346;10.248;2024-01-15T09:29:13;99357.59;;;0.81;100.00
82931;BME280;72705;53.346;10.248;2024-01-15T09:31:41;99338.88;;;0.73;100.00
82931;BME280;72705;53.346;10.248;2024-01-15T09:34:07;99330.09;;;0.73;100.00
82931;BME280;72705;53.346;10.248;2024-01-15T09:36:32;99246.06;;;0.24;100.00
82931;BME280;72705;53.346;10.248;2024-01-15T09:39:06;99281.63;;;0.61;100.00
82931;BME280;72705;53.346;10.248;2024-01-15T09:41:37;99225.09;;;0.21;100.00
82931;BME280;72705;53.346;10.248;2024-01-15T09:44:03;99162.38;;;-0.19;100.00
82931;BME280;72705;53.346;10.248;2024-01-15T09:46:31;99291.13;;;0.73;100.00
82931;BME280;72705;53.346;10.248;2024-01-15T09:49:06;99324.84;;;1.02;100.00
82931;BME280;72705;53.346;10.248;2024-01-15T09:51:34;99300.22;;;1.00;100.00
82931;BME280;72705;53.346;10.248;2024-01-15T09:54:02;99231.91;;;0.63;100.00
82931;BME280;72705;53.346;10.248;2024-01-15T09:56:30;99279.84;;;1.00;100.00
82931;BME280;72705;53.346;10.248;2024-01-15T09:58:56;99197.81;;;0.39;100.00
82931;BME280;72705;53.346;10.248;2024-01-15T10:01:28;99372.50;;;1.32;100.00
82931;BME280;72705;53.346;10.248;2024-01-15T10:03:54;99344.81;;;1.06;100.00
82931;BME280;72705;53.346;10.248;2024-01-15T10:06:21;99335.22;;;0.74;100.00
82931;BME280;72705;53.346;10.248;2024-01-15T10:08:49;99295.38;;;0.46;100.00
82931;BME280;72705;53.346;10.248;2024-01-15T10:11:15;99291.31;;;0.42;100.00
82931;BME280;72705;53.346;10.248;2024-01-15T10:13:43;99381.66;;;0.99;100.00
82931;BME280;72705;53.346;10.248;2024-01-15T10:16:08;99389.25;;;1.04;100.00
82931;BME280;72705;53.346;10.248;2024-01-15T10:18:34;99306.47;;;0.60;100.00
82931;BME280;72705;53.346;10.248;2024-01-15T10:21:02;99283.38;;;0.51;100.00
82931;BME280;72705;53.346;10.248;2024-01-15T10:23:28;99239.63;;;0.26;100.00
82931;BME280;72705;53.346;10.248;2024-01-15T10:25:56;99363.38;;;1.06;100.00
82931;BME280;72705;53.346;10.248;2024-01-15T10:28:22;99344.09;;;0.94;100.00
82931;BME280;72705;53.346;10.248;2024-01-15T10:30:52;99376.81;;;1.14;100.00
82931;BME280;72705;53.346;10.248;2024-01-15T10:33:21;99341.00;;;0.79;100.00
82931;BME280;72705;53.346;10.248;2024-01-15T10:35:48;99309.09;;;0.60;100.00
82931;BME280;72705;53.346;10.248;2024-01-15T10:38:13;99407.41;;;1.18;100.00
82931;BME280;72705;53.346;10.248;2024-01-15T10:40:40;99409.34;;;0.97;100.00
82931;BME280;72705;53.346;10.248;2024-01-15T10:43:08;99422.78;;;1.14;100.00
82931;BME280;72705;53.346;10.248;2024-01-15T10:45:33;99419.94;;;0.97;100.00
82931;BME280;72705;53.346;10.248;2024-01-15T10:47:58;99427.19;;;0.85;100.00
82931;BME280;72705;53.346;10.248;2024-01-15T10:50:25;99270.13;;;-0.19;100.00
82931;BME280;72705;53.346;10.248;2024-01-15T10:52:51;99420.88;;;0.56;100.00
82931;BME280;72705;53.346;10.248;2024-01-15T10:55:18;99398.22;;;0.42;100.00
82931;BME280;72705;53.346;10.248;2024-01-15T10:57:44;99447.06;;;0.70;100.00
82931;BME280;72705;53.346;10.248;2024-01-15T11:00:10;99406.22;;;0.52;100.00
82931;BME280;72705;53.346;10.248;2024-01-15T11:02:40;99426.16;;;0.46;100.00
82931;BME280;72705;53.346;10.248;2024-01-15T11:05:06;99455.34;;;0.76;100.00
82931;BME280;72705;53.346;10.248;2024-01-15T11:07:31;99451.97;;;0.74;100.00
82931;BME280;72705;53.346;10.248;2024-01-15T11:09:57;99419.44;;;0.42;100.00
82931;BME280;72705;53.346;10.248;2024-01-15T11:12:25;99448.25;;;0.56;100.00
82931;BME280;72705;53.346;10.248;2024-01-15T11:14:52;99392.75;;;-0.08;100.00
82931;BME280;72705;53.346;10.248;2024-01-15T11:17:19;99387.78;;;-0.22;100.00
82931;BME280;72705;53.346;10.248;2024-01-15T11:19:49;99332.81;;;-0.61;100.00
82931;BME280;72705;53.346;10.248;2024-01-15T11:24:56;99442.13;;;-0.07;100.00
82931;BME280;72705;53.346;10.248;2024-01-15T11:27:45;99440.25;;;0.05;100.00
82931;BME280;72705;53.346;10.248;2024-01-15T11:30:21;99397.31;;;-0.30;100.00
82931;BME280;72705;53.346;10.248;2024-01-15T11:32:50;99462.38;;;0.15;100.00
82931;BME280;72705;53.346;10.248;2024-01-15T11:35:15;99474.72;;;0.26;100.00
82931;BME280;72705;53.346;10.248;2024-01-15T11:40:21;99450.28;;;0.22;100.00
82931;BME280;72705;53.346;10.248;2024-01-15T11:42:48;99460.03;;;0.22;100.00
82931;BME280;72705;53.346;10.248;2024-01-15T11:45:18;99365.91;;;-0.35;100.00
82931;BME280;72705;53.346;10.248;2024-01-15T11:48:13;99473.28;;;0.22;100.00
82931;BME280;72705;53.346;10.248;2024-01-15T11:50:40;99463.13;;;0.27;100.00
82931;BME280;72705;53.346;10.248;2024-01-15T11:53:15;99448.53;;;0.12;100.00
82931;BME280;72705;53.346;10.248;2024-01-15T11:55:43;99462.91;;;0.30;100.00
82931;BME280;72705;53.346;10.248;2024-01-15T11:58:10;99395.09;;;-0.14;100.00
82931;BME280;72705;53.346;10.248;2024-01-15T12:00:42;99364.22;;;-0.25;100.00
82931;BME280;72705;53.346;10.248;2024-01-15T12:03:08;99450.53;;;0.40;100.00
82931;BME280;72705;53.346;10.248;2024-01-15T12:05:37;99444.06;;;0.33;100.00
82931;BME280;72705;53.346;10.248;2024-01-15T12:08:02;99461.59;;;0.45;100.00
82931;BME280;72705;53.346;10.248;2024-01-15T12:10:28;99433.00;;;0.28;100.00
82931;BME280;72705;53.346;10.248;2024-01-15T12:13:11;99452.13;;;0.52;100.00
82931;BME280;72705;53.346;10.248;2024-01-15T12:15:37;99459.56;;;0.58;100.00
82931;BME280;72705;53.346;10.248;2024-01-15T12:18:03;99432.28;;;0.47;100.00
82931;BME280;72705;53.346;10.248;2024-01-15T12:20:30;99453.81;;;0.53;100.00
82931;BME280;72705;53.346;10.248;2024-01-15T12:22:56;99413.75;;;0.26;100.00
82931;BME280;72705;53.346;10.248;2024-01-15T12:25:25;99436.50;;;0.49;100.00
82931;BME280;72705;53.346;10.248;2024-01-15T12:27:54;99463.38;;;0.65;100.00
82931;BME280;72705;53.346;10.248;2024-01-15T12:30:20;99470.47;;;0.55;100.00
82931;BME280;72705;53.346;10.248;2024-01-15T12:32:45;99471.53;;;0.53;100.00
82931;BME280;72705;53.346;10.248;2024-01-15T12:35:14;99470.81;;;0.51;100.00
82931;BME280;72705;53.346;10.248;2024-01-15T12:37:43;99487.56;;;0.51;100.00
82931;BME280;72705;53.346;10.248;2024-01-15T12:40:11;99491.16;;;0.40;100.00
82931;BME280;72705;53.346;10.248;2024-01-15T12:42:37;99494.19;;;0.36;100.00
82931;BME280;72705;53.346;10.248;2024-01-15T12:45:09;99485.53;;;0.34;100.00
82931;BME280;72705;53.346;10.248;2024-01-15T12:47:36;99433.91;;;-0.04;100.00
82931;BME280;72705;53.346;10.248;2024-01-15T12:50:02;99490.94;;;0.53;100.00
82931;BME280;72705;53.346;10.248;2024-01-15T12:52:44;99484.16;;;0.39;100.00